Time;durP1;ratioP1;P1;durP2;ratioP2;P2;SDS_P1;SDS_P2;PMS_P1;PMS_P2;Temp;Humidity;BMP_temperature;BMP_pressure;BME280_temperature;BME280_humidity;BME280_pressure;Samples;Min_cycle;Max_cycle;Signal;HPM_P1;HPM_P2
2021/12/03 00:01:56;;;;;;;;;26.00;23.50;;;;;;;;5049698;28;49831;-61
2021/12/03 00:04:22;;;;;;;;;30.50;25.75;;;;;;;;5049815;28;50162;-61
2021/12/03 00:06:47;;;;;;;;;32.00;28.00;;;;;;;;5049115;28;50506;-61
2021/12/03 00:09:12;;;;;;;;;34.75;32.50;;;;;;;;5049606;28;49599;-61
2021/12/03 00:11:38;;;;;;;;;35.50;33.75;;;;;;;;5049802;28;49650;-61
2021/12/03 00:14:03;;;;;;;;;34.75;31.25;;;;;;;;5049738;28;50057;-60
2021/12/03 00:16:28;;;;;;;;;39.50;33.00;;;;;;;;5049234;28;50695;-61
2021/12/03 00:18:53;;;;;;;;;34.25;30.25;;;;;;;;5049392;28;49573;-61
2021/12/03 00:21:20;;;;;;;;;33.25;32.00;;;;;;;;5049028;28;49766;-60
2021/12/03 00:23:45;;;;;;;;;31.25;31.25;;;;;;;;5049356;28;49906;-61
2021/12/03 00:26:10;;;;;;;;;27.75;21.75;;;;;;;;5049155;28;49987;-62
2021/12/03 00:28:37;;;;;;;;;31.25;29.00;;;;;;;;5049362;28;49839;-60
2021/12/03 00:31:03;;;;;;;;;31.75;30.50;;;;;;;;5049351;28;49832;-62
2021/12/03 00:33:30;;;;;;;;;27.25;25.00;;;;;;;;5049532;28;49616;-61
2021/12/03 00:35:56;;;;;;;;;33.75;31.50;;;;;;;;5048733;28;49643;-60
2021/12/03 00:38:21;;;;;;;;;38.00;30.75;;;;;;;;5049063;28;49638;-61
2021/12/03 00:40:47;;;;;;;;;33.50;31.50;;;;;;;;5049231;28;49746;-61
2021/12/03 00:43:12;;;;;;;;;31.25;29.00;;;;;;;;5049453;28;49700;-61
2021/12/03 00:45:37;;;;;;;;;34.50;33.25;;;;;;;;5049050;28;49584;-61
2021/12/03 00:48:03;;;;;;;;;33.25;27.00;;;;;;;;5049283;28;49909;-61
2021/12/03 00:50:29;;;;;;;;;41.00;31.50;;;;;;;;5048800;28;49731;-60
2021/12/03 00:52:55;;;;;;;;;31.50;28.00;;;;;;;;5049307;28;49499;-61
2021/12/03 00:55:22;;;;;;;;;26.25;25.00;;;;;;;;5048339;28;50608;-60
2021/12/03 00:57:47;;;;;;;;;30.25;27.25;;;;;;;;5048934;28;49893;-61
2021/12/03 01:00:15;;;;;;;;;26.50;26.00;;;;;;;;5049041;28;49614;-61
2021/12/03 01:02:40;;;;;;;;;28.50;26.75;;;;;;;;5048997;28;49690;-61
2021/12/03 01:05:06;;;;;;;;;34.25;27.50;;;;;;;;5048620;28;49979;-61
2021/12/03 01:07:31;;;;;;;;;27.00;24.50;;;;;;;;5048847;27;49624;-61
2021/12/03 01:09:56;;;;;;;;;32.25;30.00;;;;;;;;5048928;28;49660;-61
2021/12/03 01:12:22;;;;;;;;;29.50;27.75;;;;;;;;5049014;28;49898;-61
2021/12/03 01:14:47;;;;;;;;;26.25;25.25;;;;;;;;5048602;28;50648;-61
2021/12/03 01:17:12;;;;;;;;;32.50;31.25;;;;;;;;5048546;28;49597;-61
2021/12/03 01:19:37;;;;;;;;;31.75;28.50;;;;;;;;5047884;28;49525;-61
2021/12/03 01:22:03;;;;;;;;;29.75;29.00;;;;;;;;5048700;28;49903;-61
2021/12/03 01:24:28;;;;;;;;;35.00;32.25;;;;;;;;5048454;28;50322;-61
2021/12/03 01:26:54;;;;;;;;;25.75;25.75;;;;;;;;5048594;28;49695;-61
2021/12/03 01:29:20;;;;;;;;;32.50;32.00;;;;;;;;5048437;28;49663;-61
2021/12/03 01:31:45;;;;;;;;;24.25;24.00;;;;;;;;5048803;28;49925;-61
2021/12/03 01:34:11;;;;;;;;;36.25;29.50;;;;;;;;5048247;28;50061;-61
2021/12/03 01:36:36;;;;;;;;;25.50;23.00;;;;;;;;5047977;28;49596;-61
2021/12/03 01:39:01;;;;;;;;;26.75;25.75;;;;;;;;5048496;28;49740;-61
2021/12/03 01:41:27;;;;;;;;;27.75;27.75;;;;;;;;5048735;28;49797;-61
2021/12/03 01:43:58;;;;;;;;;28.00;27.75;;;;;;;;5048293;28;49805;-61
2021/12/03 01:46:24;;;;;;;;;23.75;23.25;;;;;;;;5048349;28;49820;-61
2021/12/03 01:48:49;;;;;;;;;26.25;25.75;;;;;;;;5048360;28;49911;-61
2021/12/03 01:51:14;;;;;;;;;30.50;26.00;;;;;;;;5048104;28;49667;-61
2021/12/03 01:53:40;;;;;;;;;26.00;24.00;;;;;;;;5047082;28;49741;-61
2021/12/03 01:56:07;;;;;;;;;25.50;25.50;;;;;;;;5046464;28;49865;-60
2021/12/03 01:58:32;;;;;;;;;29.50;26.75;;;;;;;;5046097;28;49818;-61
2021/12/03 02:01:00;;;;;;;;;38.00;29.50;;;;;;;;5046284;28;50059;-61
2021/12/03 02:03:28;;;;;;;;;25.25;24.00;;;;;;;;5045980;28;49806;-61
2021/12/03 02:05:53;;;;;;;;;29.75;28.50;;;;;;;;5044881;28;49800;-61
2021/12/03 02:08:18;;;;;;;;;24.50;22.50;;;;;;;;5046069;28;49639;-62
2021/12/03 02:10:44;;;;;;;;;21.75;20.00;;;;;;;;5047596;28;49653;-61
2021/12/03 02:13:11;;;;;;;;;25.25;24.25;;;;;;;;5047634;28;50895;-61
2021/12/03 02:15:37;;;;;;;;;33.75;26.50;;;;;;;;5047820;28;49651;-61
2021/12/03 02:18:02;;;;;;;;;22.25;21.00;;;;;;;;5047519;28;49783;-61
2021/12/03 02:20:28;;;;;;;;;18.75;18.75;;;;;;;;5047901;28;49703;-61
2021/12/03 02:22:53;;;;;;;;;25.75;22.00;;;;;;;;5047653;28;50417;-61
2021/12/03 02:25:20;;;;;;;;;23.50;22.50;;;;;;;;5047462;28;49889;-63
2021/12/03 02:27:48;;;;;;;;;26.00;24.75;;;;;;;;5048343;27;49790;-61
2021/12/03 02:30:13;;;;;;;;;21.75;19.50;;;;;;;;5047956;28;49783;-61
2021/12/03 02:32:38;;;;;;;;;20.00;20.00;;;;;;;;5047371;28;49658;-61
2021/12/03 02:35:04;;;;;;;;;27.25;23.50;;;;;;;;5047441;28;50228;-62
2021/12/03 02:37:29;;;;;;;;;24.50;22.75;;;;;;;;5047625;28;49746;-61
2021/12/03 02:39:54;;;;;;;;;22.25;19.50;;;;;;;;5047903;28;49872;-61
2021/12/03 02:42:19;;;;;;;;;20.25;17.75;;;;;;;;5047307;28;50667;-61
2021/12/03 02:44:45;;;;;;;;;16.50;16.00;;;;;;;;5047809;28;49770;-61
2021/12/03 02:47:11;;;;;;;;;23.00;21.25;;;;;;;;5047430;28;49767;-62
2021/12/03 02:49:37;;;;;;;;;22.50;18.50;;;;;;;;5047494;28;49735;-61
2021/12/03 02:52:02;;;;;;;;;27.75;25.50;;;;;;;;5047327;28;49687;-61
2021/12/03 02:54:28;;;;;;;;;20.75;17.75;;;;;;;;5047690;28;49567;-61
2021/12/03 02:56:53;;;;;;;;;17.00;14.00;;;;;;;;5047452;28;49668;-65
2021/12/03 02:59:18;;;;;;;;;21.00;21.00;;;;;;;;5047593;28;49790;-66
2021/12/03 03:01:44;;;;;;;;;16.00;13.25;;;;;;;;5047095;28;50433;-66
2021/12/03 03:04:09;;;;;;;;;22.50;21.50;;;;;;;;5047169;28;49712;-67
2021/12/03 03:06:35;;;;;;;;;23.00;17.25;;;;;;;;5047537;28;49928;-67
2021/12/03 03:09:01;;;;;;;;;17.00;14.00;;;;;;;;5047501;28;49898;-65
2021/12/03 03:11:29;;;;;;;;;15.00;15.00;;;;;;;;5047137;28;49606;-65
2021/12/03 03:13:54;;;;;;;;;15.00;15.00;;;;;;;;5047790;28;49740;-67
2021/12/03 03:16:19;;;;;;;;;16.25;12.25;;;;;;;;5046975;28;49636;-62
2021/12/03 03:18:45;;;;;;;;;17.25;14.75;;;;;;;;5049687;28;49759;-62
2021/12/03 03:21:10;;;;;;;;;16.25;13.75;;;;;;;;5049778;28;50365;-61
2021/12/03 03:23:35;;;;;;;;;15.25;15.25;;;;;;;;5050104;27;49814;-61
2021/12/03 03:26:01;;;;;;;;;16.75;14.25;;;;;;;;5050124;28;49768;-62
2021/12/03 03:28:26;;;;;;;;;16.25;11.75;;;;;;;;5050226;28;49666;-61
2021/12/03 03:30:53;;;;;;;;;14.25;10.25;;;;;;;;5049570;28;51394;-61
2021/12/03 03:33:18;;;;;;;;;15.75;13.25;;;;;;;;5050016;28;49632;-61
2021/12/03 03:35:44;;;;;;;;;14.75;12.00;;;;;;;;5031691;28;49847;-61
2021/12/03 03:38:10;;;;;;;;;12.00;12.00;;;;;;;;5050150;28;49813;-61
2021/12/03 03:40:35;;;;;;;;;17.25;16.75;;;;;;;;5049243;28;49702;-61
2021/12/03 03:43:01;;;;;;;;;19.00;15.00;;;;;;;;5049693;28;49807;-67
2021/12/03 03:45:27;;;;;;;;;14.75;12.75;;;;;;;;5049780;28;49577;-64
2021/12/03 03:47:52;;;;;;;;;10.00;10.00;;;;;;;;5049863;28;49652;-65
2021/12/03 03:50:19;;;;;;;;;15.75;12.75;;;;;;;;5049407;28;49764;-65
2021/12/03 03:52:45;;;;;;;;;13.00;13.00;;;;;;;;5050316;28;49846;-66
2021/12/03 03:55:11;;;;;;;;;12.50;10.50;;;;;;;;5049801;28;49778;-67
2021/12/03 03:57:37;;;;;;;;;13.50;13.50;;;;;;;;5049984;28;49654;-67
2021/12/03 04:00:03;;;;;;;;;16.00;15.75;;;;;;;;5031774;28;50768;-66
2021/12/03 04:02:28;;;;;;;;;11.50;9.50;;;;;;;;5049508;28;49692;-66
2021/12/03 04:04:53;;;;;;;;;12.50;12.00;;;;;;;;5049428;28;49718;-67
2021/12/03 04:07:19;;;;;;;;;10.00;10.00;;;;;;;;5049826;28;49901;-67
2021/12/03 04:09:44;;;;;;;;;17.50;13.25;;;;;;;;5049515;28;50600;-67
2021/12/03 04:12:09;;;;;;;;;13.00;13.00;;;;;;;;5049514;28;49664;-61
2021/12/03 04:14:34;;;;;;;;;12.25;12.25;;;;;;;;5049490;28;49933;-61
2021/12/03 04:17:00;;;;;;;;;15.75;14.25;;;;;;;;5049553;28;49828;-61
2021/12/03 04:19:25;;;;;;;;;11.50;11.50;;;;;;;;5049290;28;49982;-61
2021/12/03 04:21:50;;;;;;;;;9.00;9.00;;;;;;;;5049346;28;49858;-61
2021/12/03 04:24:15;;;;;;;;;9.75;9.75;;;;;;;;5049243;28;49776;-61
2021/12/03 04:26:40;;;;;;;;;13.75;12.75;;;;;;;;5049658;28;49853;-61
2021/12/03 04:29:06;;;;;;;;;11.25;10.00;;;;;;;;5048459;28;49654;-61
2021/12/03 04:31:31;;;;;;;;;12.00;7.75;;;;;;;;5049307;28;49812;-62
2021/12/03 04:33:56;;;;;;;;;19.50;13.00;;;;;;;;5049408;28;49666;-62
2021/12/03 04:36:22;;;;;;;;;12.50;8.75;;;;;;;;5049063;28;50022;-65
2021/12/03 04:38:47;;;;;;;;;10.50;9.25;;;;;;;;5048964;28;49741;-65
2021/12/03 04:41:13;;;;;;;;;13.25;11.00;;;;;;;;5049077;28;49846;-64
2021/12/03 04:43:38;;;;;;;;;11.00;10.75;;;;;;;;5049207;28;49744;-61
2021/12/03 04:46:03;;;;;;;;;10.00;10.00;;;;;;;;5049797;28;49875;-62
2021/12/03 04:48:29;;;;;;;;;13.75;13.75;;;;;;;;5048959;28;49823;-61
2021/12/03 04:50:54;;;;;;;;;13.75;13.25;;;;;;;;5048776;28;49519;-61
2021/12/03 04:53:19;;;;;;;;;13.50;11.50;;;;;;;;5049044;28;49543;-61
2021/12/03 04:55:45;;;;;;;;;9.50;8.50;;;;;;;;5049090;28;49800;-61
2021/12/03 04:58:10;;;;;;;;;13.75;12.50;;;;;;;;5048698;28;49836;-65
2021/12/03 05:00:38;;;;;;;;;10.25;10.00;;;;;;;;5048972;28;49675;-66
2021/12/03 05:03:03;;;;;;;;;10.50;8.00;;;;;;;;5049065;28;49729;-66
2021/12/03 05:05:32;;;;;;;;;7.25;7.25;;;;;;;;5048900;28;49740;-65
2021/12/03 05:07:58;;;;;;;;;9.50;9.50;;;;;;;;5048087;28;49619;-67
2021/12/03 05:10:27;;;;;;;;;16.75;14.00;;;;;;;;5048687;28;49696;-63
2021/12/03 05:12:53;;;;;;;;;12.25;10.00;;;;;;;;5048769;28;49669;-65
2021/12/03 05:15:18;;;;;;;;;10.25;7.00;;;;;;;;5048728;28;49630;-66
2021/12/03 05:17:43;;;;;;;;;10.00;9.00;;;;;;;;5048033;28;50443;-65
2021/12/03 05:20:09;;;;;;;;;8.50;8.00;;;;;;;;5048414;28;49760;-66
2021/12/03 05:22:34;;;;;;;;;10.00;10.00;;;;;;;;5048784;28;49782;-62
2021/12/03 05:24:59;;;;;;;;;10.75;9.50;;;;;;;;5048867;28;49877;-65
2021/12/03 05:27:24;;;;;;;;;9.75;9.75;;;;;;;;5048415;28;50663;-66
2021/12/03 05:29:50;;;;;;;;;10.00;7.00;;;;;;;;5048505;28;49858;-66
2021/12/03 05:32:17;;;;;;;;;5.75;4.25;;;;;;;;5048789;28;49907;-65
2021/12/03 05:34:43;;;;;;;;;11.75;8.25;;;;;;;;5048574;28;49679;-64
2021/12/03 05:37:08;;;;;;;;;7.50;5.50;;;;;;;;5048638;28;50822;-67
2021/12/03 05:39:37;;;;;;;;;6.75;6.00;;;;;;;;5048628;28;49921;-67
2021/12/03 05:42:02;;;;;;;;;4.75;3.25;;;;;;;;5047407;28;50010;-66
2021/12/03 05:44:30;;;;;;;;;12.50;6.25;;;;;;;;5048181;28;49888;-64
2021/12/03 05:46:57;;;;;;;;;9.00;9.00;;;;;;;;5048414;28;49737;-63
2021/12/03 05:49:22;;;;;;;;;6.00;6.00;;;;;;;;5047602;28;49721;-64
2021/12/03 05:51:48;;;;;;;;;9.00;6.25;;;;;;;;5048433;28;49747;-67
2021/12/03 05:54:13;;;;;;;;;8.50;8.50;;;;;;;;5048662;28;49965;-67
2021/12/03 05:56:38;;;;;;;;;9.75;8.75;;;;;;;;5048049;28;50299;-65
2021/12/03 05:59:03;;;;;;;;;9.00;6.75;;;;;;;;5048297;28;49691;-66
2021/12/03 06:01:28;;;;;;;;;7.25;7.25;;;;;;;;5048291;28;49614;-66
2021/12/03 06:03:54;;;;;;;;;9.75;8.00;;;;;;;;5048510;28;49977;-67
2021/12/03 06:06:19;;;;;;;;;17.00;13.00;;;;;;;;5047532;28;50890;-70
2021/12/03 06:08:45;;;;;;;;;7.00;6.00;;;;;;;;5048151;28;49818;-69
2021/12/03 06:11:10;;;;;;;;;8.25;6.00;;;;;;;;5048097;28;49718;-69
2021/12/03 06:13:39;;;;;;;;;4.25;4.25;;;;;;;;5048320;28;49572;-63
2021/12/03 06:16:05;;;;;;;;;5.00;3.00;;;;;;;;5047700;28;50494;-63
2021/12/03 06:18:30;;;;;;;;;8.00;5.00;;;;;;;;5048367;28;50073;-62
2021/12/03 06:20:56;;;;;;;;;6.00;3.00;;;;;;;;5047837;28;49597;-63
2021/12/03 06:23:21;;;;;;;;;9.50;7.50;;;;;;;;5047813;28;49655;-72
2021/12/03 06:25:46;;;;;;;;;5.00;4.50;;;;;;;;5029472;28;51151;-64
2021/12/03 06:28:11;;;;;;;;;4.50;3.50;;;;;;;;5047896;28;49769;-64
2021/12/03 06:30:37;;;;;;;;;9.00;5.00;;;;;;;;5048008;28;49782;-66
2021/12/03 06:33:03;;;;;;;;;8.75;5.50;;;;;;;;5048038;28;49634;-67
2021/12/03 06:35:28;;;;;;;;;7.00;5.50;;;;;;;;5029055;28;52007;-65
2021/12/03 06:37:53;;;;;;;;;6.00;5.00;;;;;;;;5048095;28;49941;-65
2021/12/03 06:40:25;;;;;;;;;6.75;5.75;;;;;;;;5067407;28;49708;-63
2021/12/03 06:42:50;;;;;;;;;5.25;3.25;;;;;;;;5068721;28;49932;-60
2021/12/03 06:45:16;;;;;;;;;5.75;3.25;;;;;;;;5067456;28;50574;-66
2021/12/03 06:47:41;;;;;;;;;6.00;5.00;;;;;;;;5067742;28;49753;-68
2021/12/03 06:50:08;;;;;;;;;6.75;5.00;;;;;;;;5068083;28;50089;-66
2021/12/03 06:52:35;;;;;;;;;8.75;8.00;;;;;;;;5068653;28;49723;-63
2021/12/03 06:55:03;;;;;;;;;4.25;2.50;;;;;;;;5070633;28;49654;-64
2021/12/03 06:57:28;;;;;;;;;4.50;4.50;;;;;;;;5070711;28;49613;-62
2021/12/03 06:59:53;;;;;;;;;5.00;5.00;;;;;;;;5070694;28;49555;-62
2021/12/03 07:02:19;;;;;;;;;6.25;3.00;;;;;;;;5070866;28;49762;-62
2021/12/03 07:04:44;;;;;;;;;7.25;4.75;;;;;;;;5070146;28;49650;-61
2021/12/03 07:07:10;;;;;;;;;4.25;2.00;;;;;;;;5070754;28;49704;-65
2021/12/03 07:09:35;;;;;;;;;3.50;3.25;;;;;;;;5070728;28;49740;-62
2021/12/03 07:12:01;;;;;;;;;5.50;5.00;;;;;;;;5070847;28;49581;-65
2021/12/03 07:14:26;;;;;;;;;3.50;3.50;;;;;;;;5053482;28;49842;-65
2021/12/03 07:16:51;;;;;;;;;6.00;4.75;;;;;;;;5041661;27;50092;-66
2021/12/03 07:19:17;;;;;;;;;5.00;3.00;;;;;;;;5049489;28;50261;-67
2021/12/03 07:21:42;;;;;;;;;2.00;2.00;;;;;;;;5049674;28;49986;-68
2021/12/03 07:24:07;;;;;;;;;3.00;3.00;;;;;;;;5067768;28;50803;-67
2021/12/03 07:26:32;;;;;;;;;5.00;2.50;;;;;;;;5068241;28;49915;-69
2021/12/03 07:28:58;;;;;;;;;8.00;5.25;;;;;;;;5054423;28;49851;-67
2021/12/03 07:31:23;;;;;;;;;4.75;4.75;;;;;;;;5029006;28;49912;-69
2021/12/03 07:33:49;;;;;;;;;2.00;2.00;;;;;;;;5028849;28;50438;-68
2021/12/03 07:36:14;;;;;;;;;3.00;3.00;;;;;;;;5032331;28;49850;-69
2021/12/03 07:38:39;;;;;;;;;5.25;5.25;;;;;;;;5056805;28;49573;-70
2021/12/03 07:41:05;;;;;;;;;3.25;3.25;;;;;;;;5044409;27;49937;-69
2021/12/03 07:43:30;;;;;;;;;1.50;1.50;;;;;;;;5048619;28;50450;-74
2021/12/03 07:45:55;;;;;;;;;7.00;3.00;;;;;;;;5047978;28;50562;-72
2021/12/03 07:48:22;;;;;;;;;3.25;3.25;;;;;;;;5048774;28;49729;-72
2021/12/03 07:50:48;;;;;;;;;5.00;3.00;;;;;;;;5051426;27;49771;-70
2021/12/03 07:53:17;;;;;;;;;2.25;2.25;;;;;;;;5060818;27;51286;-70
2021/12/03 07:55:43;;;;;;;;;4.50;3.00;;;;;;;;5084882;28;49483;-70
2021/12/03 07:58:08;;;;;;;;;2.75;2.75;;;;;;;;5062418;28;49455;-72
2021/12/03 08:00:34;;;;;;;;;5.00;4.50;;;;;;;;5065317;28;49564;-70
2021/12/03 08:02:59;;;;;;;;;5.00;1.00;;;;;;;;5067567;28;49351;-73
2021/12/03 08:05:24;;;;;;;;;5.25;5.25;;;;;;;;5040441;28;49960;-71
2021/12/03 08:07:50;;;;;;;;;6.25;5.75;;;;;;;;5063653;28;49483;-71
2021/12/03 08:10:16;;;;;;;;;1.50;1.50;;;;;;;;5061299;27;49378;-72
2021/12/03 08:12:45;;;;;;;;;3.25;3.25;;;;;;;;5057824;28;52624;-76
2021/12/03 08:15:11;;;;;;;;;4.00;3.25;;;;;;;;5049394;28;49890;-84
2021/12/03 08:17:36;;;;;;;;;2.50;2.50;;;;;;;;5049395;28;49937;-78
2021/12/03 08:20:03;;;;;;;;;2.75;2.75;;;;;;;;5048497;28;50120;-75
2021/12/03 08:22:28;;;;;;;;;2.50;2.50;;;;;;;;5049698;28;50833;-77
2021/12/03 08:24:54;;;;;;;;;2.25;2.00;;;;;;;;5048689;28;49854;-75
2021/12/03 08:27:20;;;;;;;;;5.50;2.75;;;;;;;;5049598;28;49724;-77
2021/12/03 08:29:45;;;;;;;;;2.00;2.00;;;;;;;;5048848;28;49681;-76
2021/12/03 08:32:11;;;;;;;;;1.75;1.75;;;;;;;;5049665;28;50771;-77
2021/12/03 08:34:36;;;;;;;;;5.25;2.25;;;;;;;;5049469;28;49914;-77
2021/12/03 08:37:02;;;;;;;;;2.00;2.00;;;;;;;;5048957;28;49563;-77
2021/12/03 08:39:28;;;;;;;;;3.00;2.50;;;;;;;;5050572;28;49643;-76
2021/12/03 08:41:54;;;;;;;;;2.00;2.00;;;;;;;;5050667;28;49669;-78
2021/12/03 08:44:19;;;;;;;;;1.50;1.25;;;;;;;;5050627;28;49858;-78
2021/12/03 08:46:46;;;;;;;;;2.00;2.00;;;;;;;;5051487;28;49692;-79
2021/12/03 08:49:16;;;;;;;;;2.25;2.25;;;;;;;;5052006;28;49779;-77
2021/12/03 08:56:50;;;;;;;;;3.00;3.00;;;;;;;;5051223;28;49900;-80
2021/12/03 08:59:15;;;;;;;;;8.25;6.00;;;;;;;;5048977;28;49784;-79
2021/12/03 09:01:41;;;;;;;;;3.00;2.00;;;;;;;;5048411;28;49875;-80
2021/12/03 09:04:07;;;;;;;;;2.50;2.50;;;;;;;;5029885;28;49602;-80
2021/12/03 09:06:32;;;;;;;;;2.50;2.50;;;;;;;;5048582;28;49818;-78
2021/12/03 09:08:58;;;;;;;;;5.50;5.50;;;;;;;;5048790;28;50059;-78
2021/12/03 09:11:24;;;;;;;;;2.75;2.75;;;;;;;;5048886;28;50464;-79
2021/12/03 09:13:51;;;;;;;;;5.00;5.00;;;;;;;;5031107;28;49919;-78
2021/12/03 09:16:19;;;;;;;;;3.00;3.00;;;;;;;;5030694;28;49882;-81
2021/12/03 09:18:45;;;;;;;;;4.50;4.50;;;;;;;;5048486;28;49916;-80
2021/12/03 09:21:25;;;;;;;;;5.00;3.50;;;;;;;;5048384;28;50426;-79
2021/12/03 09:26:19;;;;;;;;;5.75;5.00;;;;;;;;5048730;28;49794;-81
2021/12/03 09:28:46;;;;;;;;;3.00;3.00;;;;;;;;5055674;28;49618;-74
2021/12/03 09:31:13;;;;;;;;;5.25;5.00;;;;;;;;5058291;28;49877;-75
2021/12/03 09:33:40;;;;;;;;;5.50;3.50;;;;;;;;5050781;28;49633;-74
2021/12/03 09:36:07;;;;;;;;;4.50;4.50;;;;;;;;5047130;28;49658;-72
2021/12/03 09:38:34;;;;;;;;;6.50;4.00;;;;;;;;5035274;28;49936;-73
2021/12/03 09:41:10;;;;;;;;;6.75;5.50;;;;;;;;5068833;28;49866;-73
2021/12/03 09:43:37;;;;;;;;;4.00;3.00;;;;;;;;5057012;28;49788;-74
2021/12/03 09:46:11;;;;;;;;;3.25;3.25;;;;;;;;5047900;27;50138;-74
2021/12/03 09:49:24;;;;;;;;;6.00;6.00;;;;;;;;5048834;27;49945;-74
2021/12/03 09:51:33;;;;;;;;;4.00;4.00;;;;;;;;5048164;27;49914;-75
2021/12/03 09:56:33;;;;;;;;;5.00;5.00;;;;;;;;5048415;27;49630;-73
2021/12/03 10:12:35;;;;;;;;;5.00;5.00;;;;;;;;5047852;28;50160;-74
2021/12/03 10:15:07;;;;;;;;;3.00;3.00;;;;;;;;5048102;27;49731;-71
2021/12/03 10:20:26;;;;;;;;;9.25;5.25;;;;;;;;5047952;28;49766;-74
2021/12/03 10:54:34;;;;;;;;;6.75;5.75;;;;;;;;5047102;28;50048;-75
2021/12/03 11:27:22;;;;;;;;;3.50;3.50;;;;;;;;5046898;28;49779;-75
2021/12/03 11:29:52;;;;;;;;;6.50;5.75;;;;;;;;5046306;27;49968;-75
2021/12/03 11:44:36;;;;;;;;;5.50;5.50;;;;;;;;5051491;28;49802;-75
2021/12/03 12:07:05;;;;;;;;;6.00;3.00;;;;;;;;5036742;28;49654;-73
2021/12/03 12:58:13;;;;;;;;;1.00;1.00;;;;;;;;5069214;28;49825;-73
2021/12/03 14:32:03;;;;;;;;;3.00;3.00;;;;;;;;5027795;28;49739;-71
2021/12/03 14:36:53;;;;;;;;;2.25;2.25;;;;;;;;5027439;28;49798;-71
2021/12/03 14:42:31;;;;;;;;;1.25;1.25;;;;;;;;5027287;28;50294;-71
2021/12/03 14:47:50;;;;;;;;;1.00;1.00;;;;;;;;5027466;28;49538;-72
2021/12/03 14:50:43;;;;;;;;;2.25;2.25;;;;;;;;5027590;28;49793;-71
2021/12/03 14:55:41;;;;;;;;;4.50;4.50;;;;;;;;5029930;28;49872;-72
2021/12/03 14:58:13;;;;;;;;;2.00;2.00;;;;;;;;5027341;28;49918;-71
2021/12/03 15:08:34;;;;;;;;;2.75;1.75;;;;;;;;5036414;27;50068;-74
2021/12/03 15:19:10;;;;;;;;;2.75;2.75;;;;;;;;5072501;28;49876;-74
2021/12/03 16:10:20;;;;;;;;;1.50;1.50;;;;;;;;5068294;28;49884;-69
2021/12/03 16:12:58;;;;;;;;;5.00;2.00;;;;;;;;5068796;28;49686;-71
2021/12/03 16:18:11;;;;;;;;;4.00;3.50;;;;;;;;5066767;28;50427;-68
2021/12/03 16:23:48;;;;;;;;;3.00;3.00;;;;;;;;5054784;27;50330;-69
2021/12/03 16:53:02;;;;;;;;;1.00;1.00;;;;;;;;5048285;28;49601;-63
2021/12/03 16:55:28;;;;;;;;;2.25;2.25;;;;;;;;5053536;28;49711;-63
2021/12/03 16:57:54;;;;;;;;;2.00;2.00;;;;;;;;5049506;27;49720;-62
2021/12/03 17:00:26;;;;;;;;;0.75;0.75;;;;;;;;5052044;27;49506;-63
2021/12/03 17:03:01;;;;;;;;;1.50;1.50;;;;;;;;5059689;28;49734;-64
2021/12/03 18:00:45;;;;;;;;;5.00;5.00;;;;;;;;5048461;28;49791;-64
2021/12/03 18:03:26;;;;;;;;;3.00;2.00;;;;;;;;5029934;28;50738;-65
2021/12/03 18:06:13;;;;;;;;;5.25;5.25;;;;;;;;5047931;28;49885;-65
2021/12/03 18:17:22;;;;;;;;;5.75;5.75;;;;;;;;5045637;27;49836;-65
2021/12/03 18:19:37;;;;;;;;;5.25;5.25;;;;;;;;5052959;27;50020;-67
2021/12/03 18:49:52;;;;;;;;;10.00;10.00;;;;;;;;5046810;28;49664;-59
2021/12/03 18:52:43;;;;;;;;;10.25;10.25;;;;;;;;5046802;28;49986;-56
2021/12/03 18:55:12;;;;;;;;;9.50;9.50;;;;;;;;5047728;28;50184;-59
2021/12/03 18:57:43;;;;;;;;;10.50;10.25;;;;;;;;5047450;28;49835;-60
2021/12/03 19:00:11;;;;;;;;;12.00;11.50;;;;;;;;5047705;28;49646;-60
2021/12/03 19:02:39;;;;;;;;;15.25;14.00;;;;;;;;5047493;28;49931;-60
2021/12/03 19:08:12;;;;;;;;;15.50;14.25;;;;;;;;4984392;28;49761;-63
2021/12/03 19:10:45;;;;;;;;;14.25;13.50;;;;;;;;4984597;27;49568;-62
2021/12/03 19:13:18;;;;;;;;;11.00;11.00;;;;;;;;5017957;28;49717;-61
2021/12/03 19:15:44;;;;;;;;;13.25;12.75;;;;;;;;5047347;28;49605;-67
2021/12/03 19:18:10;;;;;;;;;14.00;12.25;;;;;;;;5046962;28;50803;-59
2021/12/03 19:20:40;;;;;;;;;12.00;12.00;;;;;;;;5046934;28;49654;-62
2021/12/03 19:23:05;;;;;;;;;13.25;13.25;;;;;;;;5047282;28;49911;-63
2021/12/03 19:25:30;;;;;;;;;12.00;12.00;;;;;;;;5025625;27;49767;-65
2021/12/03 19:27:55;;;;;;;;;15.75;12.50;;;;;;;;5026517;28;49754;-63
2021/12/03 19:30:21;;;;;;;;;11.75;11.75;;;;;;;;5026839;28;49742;-63
2021/12/03 19:32:46;;;;;;;;;15.50;14.25;;;;;;;;5027071;28;49950;-61
2021/12/03 19:35:11;;;;;;;;;7.25;6.25;;;;;;;;5026922;28;49833;-71
2021/12/03 19:37:37;;;;;;;;;13.75;11.75;;;;;;;;5026567;28;49805;-64
2021/12/03 19:40:06;;;;;;;;;13.00;11.50;;;;;;;;5026675;28;49720;-65
2021/12/03 19:43:10;;;;;;;;;12.50;11.00;;;;;;;;5026874;28;49834;-65
2021/12/03 19:45:26;;;;;;;;;19.00;12.50;;;;;;;;5028374;28;49659;-63
2021/12/03 19:50:27;;;;;;;;;13.25;10.75;;;;;;;;5026237;28;49927;-65
2021/12/03 19:53:09;;;;;;;;;16.00;12.25;;;;;;;;5025158;28;49656;-65
2021/12/03 19:55:37;;;;;;;;;17.00;14.50;;;;;;;;5026768;28;50043;-67
2021/12/03 19:58:02;;;;;;;;;14.25;12.50;;;;;;;;5024856;28;51449;-67
2021/12/03 20:00:28;;;;;;;;;13.75;12.50;;;;;;;;5025614;28;49846;-66
2021/12/03 20:02:53;;;;;;;;;11.25;8.50;;;;;;;;5029540;28;49523;-67
2021/12/03 20:05:18;;;;;;;;;15.75;15.00;;;;;;;;5028051;28;49600;-66
2021/12/03 20:07:44;;;;;;;;;10.00;10.00;;;;;;;;5029451;28;49713;-66
2021/12/03 20:10:15;;;;;;;;;15.25;13.25;;;;;;;;5029835;28;49749;-67
2021/12/03 20:12:40;;;;;;;;;14.25;12.50;;;;;;;;5029510;28;49651;-62
2021/12/03 20:15:09;;;;;;;;;15.00;13.50;;;;;;;;5029999;28;49649;-69
2021/12/03 20:17:39;;;;;;;;;14.50;14.50;;;;;;;;5029416;28;49779;-67
2021/12/03 20:20:06;;;;;;;;;16.00;12.00;;;;;;;;5029212;28;49641;-64
2021/12/03 20:27:48;;;;;;;;;13.50;13.00;;;;;;;;5049048;28;49591;-63
2021/12/03 20:30:23;;;;;;;;;17.25;15.25;;;;;;;;5030927;28;49596;-63
2021/12/03 20:38:04;;;;;;;;;16.25;12.25;;;;;;;;5062890;28;49706;-63
2021/12/03 20:40:33;;;;;;;;;13.75;13.75;;;;;;;;5055378;28;49871;-62
2021/12/03 20:53:39;;;;;;;;;10.50;10.50;;;;;;;;5052707;28;49840;-66
2021/12/03 21:09:30;;;;;;;;;8.25;8.25;;;;;;;;5048409;28;49852;-69
2021/12/03 21:11:59;;;;;;;;;7.50;7.50;;;;;;;;5050288;27;49876;-69
2021/12/03 21:14:29;;;;;;;;;6.50;5.75;;;;;;;;5046445;28;49991;-68
2021/12/03 21:17:07;;;;;;;;;6.00;6.00;;;;;;;;5048927;28;50256;-70
2021/12/03 21:19:42;;;;;;;;;5.00;5.00;;;;;;;;5048328;28;51190;-69
2021/12/03 21:22:19;;;;;;;;;6.00;4.25;;;;;;;;5048321;28;49667;-69
2021/12/03 21:24:48;;;;;;;;;9.25;6.50;;;;;;;;5048402;28;49794;-69
2021/12/03 21:27:19;;;;;;;;;7.00;7.00;;;;;;;;5048869;28;49756;-69
2021/12/03 21:32:45;;;;;;;;;8.50;7.50;;;;;;;;5048410;28;49752;-69
2021/12/03 21:43:16;;;;;;;;;4.00;3.75;;;;;;;;5048589;28;49653;-69
2021/12/03 21:45:42;;;;;;;;;7.75;6.50;;;;;;;;5046582;28;49856;-67
2021/12/03 21:48:08;;;;;;;;;7.00;7.00;;;;;;;;5047136;28;50107;-68
2021/12/03 21:50:33;;;;;;;;;3.75;3.75;;;;;;;;5047729;28;50907;-66
2021/12/03 21:52:58;;;;;;;;;5.50;5.50;;;;;;;;5046689;28;49536;-65
2021/12/03 21:55:25;;;;;;;;;8.00;6.75;;;;;;;;5048243;28;49835;-69
2021/12/03 21:57:51;;;;;;;;;6.00;6.00;;;;;;;;5046714;28;49689;-69
2021/12/03 22:00:16;;;;;;;;;6.00;6.00;;;;;;;;5048222;28;49808;-72
2021/12/03 22:02:42;;;;;;;;;4.25;4.25;;;;;;;;5046692;28;49834;-72
2021/12/03 22:05:07;;;;;;;;;7.00;6.00;;;;;;;;5046541;28;49778;-71
2021/12/03 22:07:33;;;;;;;;;1.00;0.75;;;;;;;;5046863;28;49692;-71
2021/12/03 22:09:58;;;;;;;;;8.75;6.00;;;;;;;;5046030;28;52247;-71
2021/12/03 22:12:24;;;;;;;;;8.50;6.75;;;;;;;;5047895;28;49720;-72
2021/12/03 22:14:49;;;;;;;;;8.75;8.00;;;;;;;;5047947;28;49815;-71
2021/12/03 22:17:14;;;;;;;;;11.25;9.00;;;;;;;;5046591;28;49911;-69
2021/12/03 22:19:40;;;;;;;;;6.50;6.50;;;;;;;;5046278;28;52970;-69
2021/12/03 22:22:07;;;;;;;;;7.00;7.00;;;;;;;;5046338;28;49707;-69
2021/12/03 22:24:36;;;;;;;;;6.25;6.25;;;;;;;;5044983;28;49934;-70
2021/12/03 22:27:01;;;;;;;;;9.00;8.00;;;;;;;;5046532;28;49928;-70
2021/12/03 22:29:27;;;;;;;;;9.75;8.25;;;;;;;;5045856;28;52142;-70
2021/12/03 22:31:53;;;;;;;;;11.00;11.00;;;;;;;;5047752;28;49997;-69
2021/12/03 22:34:19;;;;;;;;;11.50;9.75;;;;;;;;5046438;28;50005;-71
2021/12/03 22:36:44;;;;;;;;;13.25;13.25;;;;;;;;5046184;28;49941;-71
2021/12/03 22:39:10;;;;;;;;;12.00;11.00;;;;;;;;5045583;28;51215;-67
2021/12/03 22:41:38;;;;;;;;;13.75;12.50;;;;;;;;5046160;28;49751;-69
2021/12/03 22:44:03;;;;;;;;;8.00;7.25;;;;;;;;5047476;28;49700;-69
2021/12/03 22:46:40;;;;;;;;;10.75;10.75;;;;;;;;5046257;28;49997;-70
2021/12/03 22:51:46;;;;;;;;;13.25;11.00;;;;;;;;5047170;28;49676;-69
2021/12/03 22:54:11;;;;;;;;;10.25;10.00;;;;;;;;5047614;28;49747;-69
2021/12/03 22:56:37;;;;;;;;;7.75;7.75;;;;;;;;5046306;28;49766;-69
2021/12/03 22:59:02;;;;;;;;;9.00;8.00;;;;;;;;5045770;28;51767;-71
2021/12/03 23:01:27;;;;;;;;;13.50;11.50;;;;;;;;5045967;28;49717;-71
2021/12/03 23:03:53;;;;;;;;;8.00;8.00;;;;;;;;5045968;28;49810;-71